Westville, FL (32464)

1:54 AM CDT on May 06, 2015 (GMT -0500)
Behind Mt Pleasant Assembly of God Church on Mt Pleasant Rd, Westville, FL | | Change Station
CLOSE
Current Station
Personal Weather Station
Location: Westville, FL
Elevation: 141 ft
Nearby Weather Stations

Elev 141 ft 30.85 °N, 85.91 °W | Updated 11 seconds ago

Mostly Cloudy
Mostly Cloudy
63.3 °F
Feels Like 63.3 °F
N
0.0
Wind Variable Wind from SE
Gusts 0.0 mph

Today
High -- | Low -- °F
--% Chance of Precip.
Yesterday
High -- | Low -- °F
Precip. -- in
5:55 AM 7:25 PM
Waning Gibbous, 95% visible
Pressure 30.15 in
Visibility 10.0 miles
Clouds Scattered Clouds 5000 ft
Dew Point 59 °F
Humidity 87%
Rainfall 0.00 in
Snow Depth Not available.
UV 0.0 out of 12
Pollen 7.00 out of 12
Air Quality Not available.
Flu Activity Local Activity
METAR K54J 060635Z AUTO 10003KT 10SM SCT050 19/14 A3015 RMK AO2 T01900140

More Conditions Fewer Conditions

Pressure 30.15 in
Visibility 10.0 miles
Clouds Scattered Clouds 5000 ft
Dew Point 59 °F
Humidity 87%
Rainfall 0.00 in
Snow Depth Not available.
UV 0.0 out of 12
Pollen 7.00 out of 12
Air Quality Not available.
Flu Activity Local Activity
METAR K54J 060635Z AUTO 10003KT 10SM SCT050 19/14 A3015 RMK AO2 T01900140

More Conditions Fewer Conditions

10-Day Weather Forecast

Almanac

Astronomy

May. 06, 2015 Rise Set
Actual Time
Civil Twilight
Nautical Twilight
Astronomical Twilight
Moon
Length of Visible Light
Length of Day
Tomorrow will be .
, % of the Moon is Illuminated

Today's Extremes

State Highs State Lows

Community

WunderPhotos

Upload Photos

1,818,850 photos uploaded!

WunderBlogs® & News

Nearby

Air Quality

  Air Quality AQ Index Pollutant
Not available.

Snow Depth

Station Depth Elevation

Earthquake Activity

City Distance Mag. Time & Date
Minimum magnitude displayed is 2.5.

Coastal Water Temperatures

Place Temperature

Stations

Nearby Weather Stations

Station Location Temp. Windchill Dew Point Humidity Wind Precip. Elev Updated Type